Latest Weather Observations for Sheffield
Issued at 12:01 am EST Sunday 6 September 2026 (issued every 10 minutes, with the page automatically refreshed every 10 minutes)
| Station Details | ID: 091291 | Name: SHEFFIELD SCHOOL FARM | Lat: -41.39 | Lon: 146.32 | Height: 277.29 m |
| Date/Time EST |
Temp °C |
App Temp °C |
Dew Point °C |
Rel Hum % |
Delta-T °C |
Wind | Press QNH hPa |
Press MSL hPa |
Rain since 9am mm |
|||||
|---|---|---|---|---|---|---|---|---|---|---|---|---|---|---|
| Dir | Spd km/h |
Gust km/h |
Spd kts |
Gust kts |
||||||||||
| 06/12:00am | 9.8 | 7.4 | 6.9 | 82 | 1.4 | S | 9 | 17 | 5 | 9 | 1003.0 | 1003.2 | 9.0 | |
| Date/Time EST |
Temp °C |
App Temp °C |
Dew Point °C |
Rel Hum % |
Delta-T °C |
Wind | Press QNH hPa |
Press MSL hPa |
Rain since 9am mm |
|||||
|---|---|---|---|---|---|---|---|---|---|---|---|---|---|---|
| Dir | Spd km/h |
Gust km/h |
Spd kts |
Gust kts |
||||||||||
| 05/11:30pm | 9.0 | 7.5 | 7.0 | 87 | 1.0 | E | 4 | 7 | 2 | 4 | 1002.3 | 1002.5 | 9.0 | |
| 05/11:00pm | 6.7 | 5.4 | 5.8 | 94 | 0.4 | E | 2 | 6 | 1 | 3 | 1001.8 | 1002.1 | 9.0 | |
| 05/10:30pm | 7.0 | 5.3 | 5.9 | 93 | 0.5 | NE | 4 | 7 | 2 | 4 | 1001.0 | 1001.3 | 9.0 | |
| 05/10:00pm | 6.9 | 6.1 | 6.3 | 96 | 0.3 | CALM | 0 | 6 | 0 | 3 | 1000.3 | 1000.6 | 9.0 | |
| 05/09:30pm | 7.4 | 6.7 | 6.8 | 96 | 0.3 | CALM | 0 | 2 | 0 | 1 | 999.8 | 1000.0 | 9.0 | |
| 05/09:00pm | 7.6 | 6.5 | 6.7 | 94 | 0.4 | N | 2 | 6 | 1 | 3 | 999.3 | 999.5 | 9.0 | |
| 05/08:30pm | 7.6 | 5.8 | 7.2 | 97 | 0.2 | N | 6 | 9 | 3 | 5 | 998.7 | 998.9 | 9.0 | |
| 05/08:00pm | 7.8 | 7.2 | 7.2 | 96 | 0.3 | CALM | 0 | 0 | 0 | 0 | 998.0 | 998.3 | 9.0 | |
| 05/07:30pm | 7.9 | 6.5 | 7.1 | 95 | 0.4 | N | 4 | 6 | 2 | 3 | 997.7 | 998.0 | 8.8 | |
| 05/07:00pm | 8.7 | 7.1 | 7.8 | 94 | 0.4 | N | 6 | 7 | 3 | 4 | 997.3 | 997.6 | 8.8 | |
| 05/06:30pm | 9.3 | 6.8 | 8.2 | 93 | 0.5 | NNW | 11 | 15 | 6 | 8 | 997.2 | 997.5 | 8.8 | |
| 05/06:00pm | 10.0 | 8.1 | 8.9 | 93 | 0.6 | NNW | 9 | 13 | 5 | 7 | 996.7 | 996.9 | 8.8 | |
| 05/05:30pm | 10.0 | 7.7 | 8.9 | 93 | 0.5 | NNW | 11 | 19 | 6 | 10 | 996.4 | 996.6 | 8.8 | |
| 05/05:00pm | 10.4 | 8.1 | 9.0 | 91 | 0.7 | NW | 11 | 15 | 6 | 8 | 996.1 | 996.3 | 8.6 | |
| 05/04:30pm | 10.5 | 8.3 | 9.3 | 92 | 0.6 | NNW | 11 | 17 | 6 | 9 | 995.9 | 996.1 | 8.6 | |
| 05/04:00pm | 10.7 | 8.6 | 9.9 | 95 | 0.4 | NNW | 11 | 19 | 6 | 10 | 995.8 | 996.0 | 8.6 | |
| 05/03:30pm | 10.5 | 7.4 | 8.9 | 90 | 0.8 | WNW | 15 | 24 | 8 | 13 | 995.6 | 995.8 | 8.4 | |
| 05/03:00pm | 11.3 | 7.6 | 9.6 | 89 | 0.9 | NNW | 19 | 30 | 10 | 16 | 995.5 | 995.7 | 6.4 | |
| 05/02:30pm | 13.0 | 8.5 | 8.5 | 74 | 2.3 | NW | 22 | 44 | 12 | 24 | 995.5 | 995.7 | 6.2 | |
| 05/02:00pm | 13.3 | 9.0 | 8.0 | 70 | 2.7 | NW | 20 | 37 | 11 | 20 | 995.5 | 995.7 | 6.2 | |
| 05/01:30pm | 14.0 | 10.7 | 11.0 | 82 | 1.6 | NW | 19 | 35 | 10 | 19 | 995.6 | 995.8 | 6.2 | |
| 05/01:00pm | 12.9 | 8.9 | 10.3 | 84 | 1.4 | NW | 22 | 35 | 12 | 19 | 996.1 | 996.3 | 6.2 | |
| 05/12:30pm | 12.7 | 8.9 | 11.3 | 91 | 0.7 | NNW | 22 | 37 | 12 | 20 | 996.4 | 996.6 | 6.2 | |
| 05/12:00pm | 11.9 | 7.8 | 11.4 | 97 | 0.3 | NNW | 24 | 43 | 13 | 23 | 996.8 | 997.0 | 6.2 | |
| 05/11:30am | 11.8 | 7.3 | 11.5 | 98 | 0.2 | NNW | 26 | 33 | 14 | 18 | 997.3 | 997.6 | 6.2 | |
| 05/11:00am | 11.7 | 8.4 | 11.5 | 99 | 0.1 | NNW | 20 | 37 | 11 | 20 | 997.9 | 998.2 | 5.6 | |
| 05/10:30am | 11.6 | 9.2 | 11.4 | 99 | 0.1 | NNW | 15 | 26 | 8 | 14 | 998.8 | 999.0 | 5.2 | |
| 05/10:00am | 11.2 | 10.4 | 11.0 | 99 | 0.1 | N | 6 | 11 | 3 | 6 | 999.6 | 999.8 | 4.8 | |
| 05/09:30am | 10.2 | 9.1 | 10.1 | 99 | 0.1 | ESE | 6 | 9 | 3 | 5 | 1000.2 | 1000.5 | 2.0 | |
| 05/09:00am | 10.1 | 9.0 | 10.0 | 99 | 0.1 | SE | 6 | 9 | 3 | 5 | 1000.5 | 1000.8 | 14.2 | |
| 05/08:30am | 10.0 | 9.3 | 9.9 | 99 | 0.1 | SE | 4 | 7 | 2 | 4 | 1001.3 | 1001.6 | 13.6 | |
| 05/08:00am | 9.7 | 8.5 | 9.6 | 99 | 0.1 | ESE | 6 | 9 | 3 | 5 | 1001.7 | 1002.0 | 12.8 | |
| 05/07:30am | 9.4 | 8.1 | 9.3 | 99 | 0.1 | SSE | 6 | 9 | 3 | 5 | 1002.1 | 1002.3 | 12.2 | |
| 05/07:00am | 9.4 | 7.6 | 9.3 | 99 | 0.1 | ESE | 9 | 11 | 5 | 6 | 1002.3 | 1002.5 | 11.4 | |
| 05/06:30am | 9.4 | 7.9 | 9.3 | 99 | 0.1 | SE | 7 | 9 | 4 | 5 | 1002.8 | 1003.0 | 9.4 | |
| 05/06:00am | 9.5 | 8.3 | 9.4 | 99 | 0.1 | ESE | 6 | 7 | 3 | 4 | 1003.4 | 1003.7 | 8.2 | |
| 05/05:30am | 9.5 | 9.0 | 9.4 | 99 | 0.1 | SE | 2 | 6 | 1 | 3 | 1003.8 | 1004.1 | 7.4 | |
| 05/05:00am | 9.9 | 9.9 | 9.8 | 99 | 0.1 | CALM | 0 | 0 | 0 | 0 | 1004.3 | 1004.6 | 6.6 | |
| 05/04:30am | 10.0 | 10.0 | 9.9 | 99 | 0.1 | CALM | 0 | 0 | 0 | 0 | 1004.7 | 1005.0 | 5.2 | |
| 05/04:00am | 9.9 | 9.9 | 9.8 | 99 | 0.1 | CALM | 0 | 2 | 0 | 1 | 1004.6 | 1004.9 | 4.2 | |
| 05/03:30am | 9.6 | 9.5 | 9.5 | 99 | 0.1 | CALM | 0 | 0 | 0 | 0 | 1005.1 | 1005.4 | 4.2 | |
| 05/03:00am | 9.5 | 9.0 | 9.4 | 99 | 0.1 | NW | 2 | 4 | 1 | 2 | 1006.1 | 1006.3 | 3.6 | |
| 05/02:30am | 9.3 | 8.3 | 9.0 | 98 | 0.1 | NW | 4 | 7 | 2 | 4 | 1006.8 | 1007.1 | 2.4 | |
| 05/02:00am | 9.4 | 8.5 | 9.1 | 98 | 0.2 | NNW | 4 | 7 | 2 | 4 | 1007.1 | 1007.4 | 1.8 | |
| 05/01:30am | 8.9 | 8.6 | 8.6 | 98 | 0.1 | CALM | 0 | 0 | 0 | 0 | 1007.6 | 1007.9 | 1.4 | |
| 05/01:00am | 8.8 | 8.5 | 8.5 | 98 | 0.1 | CALM | 0 | 0 | 0 | 0 | 1007.9 | 1008.2 | 1.2 | |
| 05/12:30am | 8.8 | 7.7 | 8.5 | 98 | 0.1 | NNW | 4 | 6 | 2 | 3 | 1008.4 | 1008.7 | 1.0 | |
| 05/12:00am | 8.5 | 7.3 | 8.2 | 98 | 0.1 | NNW | 4 | 6 | 2 | 3 | 1008.8 | 1009.1 | 0.6 | |
| Date/Time EST |
Temp °C |
App Temp °C |
Dew Point °C |
Rel Hum % |
Delta-T °C |
Wind | Press QNH hPa |
Press MSL hPa |
Rain since 9am mm |
|||||
|---|---|---|---|---|---|---|---|---|---|---|---|---|---|---|
| Dir | Spd km/h |
Gust km/h |
Spd kts |
Gust kts |
||||||||||
| 04/11:30pm | 8.3 | 6.7 | 7.9 | 97 | 0.2 | NNW | 6 | 9 | 3 | 5 | 1009.1 | 1009.5 | 0.4 | |
| 04/11:00pm | 8.3 | 6.7 | 7.9 | 97 | 0.2 | NW | 6 | 7 | 3 | 4 | 1009.5 | 1009.9 | 0.4 | |
| 04/10:30pm | 8.3 | 6.6 | 7.7 | 96 | 0.3 | NW | 6 | 9 | 3 | 5 | 1009.9 | 1010.2 | 0.4 | |
| 04/10:00pm | 8.3 | 6.6 | 7.5 | 95 | 0.4 | NW | 6 | 9 | 3 | 5 | 1010.3 | 1010.6 | 0.2 | |
| 04/09:30pm | 8.2 | 5.6 | 7.6 | 96 | 0.3 | WNW | 11 | 19 | 6 | 10 | 1010.5 | 1010.8 | 0.0 | |
| 04/09:00pm | 8.1 | 5.4 | 7.5 | 96 | 0.3 | NW | 11 | 15 | 6 | 8 | 1010.6 | 1010.9 | 0.0 | |
| 04/08:30pm | 8.3 | 5.5 | 6.8 | 90 | 0.7 | NW | 11 | 17 | 6 | 9 | 1010.6 | 1010.9 | 0.0 | |
| 04/08:00pm | 8.7 | 5.8 | 6.3 | 85 | 1.1 | NW | 11 | 17 | 6 | 9 | 1010.8 | 1011.1 | 0.0 | |
| 04/07:30pm | 8.7 | 5.7 | 6.2 | 84 | 1.2 | NW | 11 | 17 | 6 | 9 | 1010.9 | 1011.2 | 0.0 | |
| 04/07:00pm | 8.4 | 5.0 | 6.0 | 85 | 1.1 | NW | 13 | 20 | 7 | 11 | 1011.1 | 1011.4 | 0.0 | |
| 04/06:30pm | 8.4 | 5.0 | 6.0 | 85 | 1.1 | NW | 13 | 20 | 7 | 11 | 1011.0 | 1011.3 | 0.0 | |
| 04/06:00pm | 8.7 | 4.9 | 5.8 | 82 | 1.3 | NNW | 15 | 22 | 8 | 12 | 1011.0 | 1011.3 | 0.0 | |
| 04/05:30pm | 9.2 | 5.7 | 5.4 | 77 | 1.7 | NW | 13 | 22 | 7 | 12 | 1010.6 | 1010.9 | 0.0 | |
| 04/05:00pm | 10.0 | 5.7 | 5.2 | 72 | 2.2 | WNW | 17 | 26 | 9 | 14 | 1010.8 | 1011.1 | 0.0 | |
| 04/04:30pm | 10.2 | 5.6 | 5.4 | 72 | 2.2 | WNW | 19 | 32 | 10 | 17 | 1010.5 | 1010.8 | 0.0 | |
| 04/04:00pm | 10.7 | 7.1 | 6.8 | 77 | 1.9 | WNW | 15 | 30 | 8 | 16 | 1010.5 | 1010.8 | 0.0 | |
| 04/03:30pm | 12.1 | 7.4 | 5.0 | 62 | 3.3 | WNW | 19 | 30 | 10 | 16 | 1010.5 | 1010.8 | 0.0 | |
| 04/03:00pm | 12.7 | 7.2 | 4.2 | 56 | 3.9 | NW | 22 | 37 | 12 | 20 | 1010.5 | 1010.8 | 0.0 | |
| 04/02:30pm | 12.8 | 7.9 | 4.0 | 55 | 4.0 | WNW | 19 | 32 | 10 | 17 | 1010.6 | 1010.9 | 0.0 | |
| 04/02:00pm | 12.3 | 7.1 | 3.8 | 56 | 3.9 | WNW | 20 | 33 | 11 | 18 | 1010.7 | 1011.0 | 0.0 | |
| 04/01:30pm | 12.5 | 6.9 | 3.7 | 55 | 4.0 | NW | 22 | 35 | 12 | 19 | 1010.9 | 1011.2 | 0.0 | |
| 04/01:00pm | 11.6 | 6.6 | 4.8 | 63 | 3.1 | NW | 20 | 37 | 11 | 20 | 1011.6 | 1011.9 | 0.0 | |
| 04/12:30pm | 10.5 | 5.7 | 5.5 | 71 | 2.3 | WNW | 20 | 37 | 11 | 20 | 1012.2 | 1012.6 | 0.0 | |
| 04/12:00pm | 10.4 | 6.0 | 4.5 | 67 | 2.7 | WNW | 17 | 26 | 9 | 14 | 1012.4 | 1012.8 | 0.0 | |
| 04/11:30am | 10.9 | 7.5 | 5.9 | 71 | 2.4 | WNW | 13 | 19 | 7 | 10 | 1012.9 | 1013.3 | 0.0 | |
| 04/11:00am | 10.4 | 6.0 | 5.0 | 69 | 2.5 | WNW | 17 | 24 | 9 | 13 | 1013.0 | 1013.4 | 0.0 | |
| 04/10:30am | 10.7 | 6.8 | 5.3 | 69 | 2.5 | WNW | 15 | 26 | 8 | 14 | 1013.1 | 1013.5 | 0.0 | |
| 04/10:00am | 10.1 | 5.3 | 4.9 | 70 | 2.4 | WNW | 19 | 28 | 10 | 15 | 1013.4 | 1013.7 | 0.0 | |
| 04/09:30am | 10.1 | 6.2 | 5.5 | 73 | 2.1 | WNW | 15 | 22 | 8 | 12 | 1013.4 | 1013.7 | 0.0 | |
| 04/09:00am | 9.8 | 6.6 | 5.0 | 72 | 2.2 | WNW | 11 | 22 | 6 | 12 | 1013.2 | 1013.6 | - | |
| 04/08:30am | 8.8 | 5.8 | 4.0 | 72 | 2.1 | WNW | 9 | 17 | 5 | 9 | 1013.4 | 1013.7 | - | |
| 04/08:00am | 8.2 | 4.8 | 4.2 | 76 | 1.8 | WNW | 11 | 15 | 6 | 8 | 1013.2 | 1013.6 | - | |
| 04/07:30am | 7.5 | 4.5 | 3.9 | 78 | 1.6 | WNW | 9 | 15 | 5 | 8 | 1012.8 | 1013.2 | - | |
| 04/07:00am | 6.4 | 3.7 | 3.7 | 83 | 1.2 | NNW | 7 | 15 | 4 | 8 | 1012.3 | 1012.7 | - | |
| 04/06:30am | 6.7 | 3.7 | 3.9 | 82 | 1.2 | NW | 9 | 19 | 5 | 10 | 1012.1 | 1012.4 | - | |
| 04/06:00am | 6.6 | 3.1 | 3.6 | 81 | 1.3 | WNW | 11 | 19 | 6 | 10 | 1011.9 | 1012.2 | - | |
| 04/05:30am | 6.5 | 3.0 | 3.3 | 80 | 1.4 | WNW | 11 | 19 | 6 | 10 | 1011.7 | 1012.0 | - | |
| 04/05:00am | 6.3 | 2.0 | 3.3 | 81 | 1.3 | WNW | 15 | 24 | 8 | 13 | 1011.3 | 1011.6 | - | |
| 04/04:30am | 5.9 | 1.5 | 2.9 | 81 | 1.3 | NW | 15 | 22 | 8 | 12 | 1011.4 | 1011.7 | - | |
| 04/04:00am | 5.9 | 1.5 | 2.7 | 80 | 1.3 | WNW | 15 | 20 | 8 | 11 | 1011.3 | 1011.6 | - | |
| 04/03:30am | 6.1 | 2.0 | 2.4 | 77 | 1.5 | WNW | 13 | 22 | 7 | 12 | 1011.3 | 1011.6 | - | |
| 04/03:00am | 6.3 | 1.8 | 2.4 | 76 | 1.6 | WNW | 15 | 26 | 8 | 14 | 1011.5 | 1011.8 | 0.0 | |
| 04/02:30am | 6.7 | 2.2 | 2.2 | 73 | 1.9 | WNW | 15 | 30 | 8 | 16 | 1011.6 | 1011.9 | - | |
| 04/02:00am | 6.9 | 2.8 | 2.4 | 73 | 1.9 | WNW | 13 | 24 | 7 | 13 | 1012.1 | 1012.4 | - | |
| 04/01:30am | 7.1 | 3.0 | 2.2 | 71 | 2.0 | WNW | 13 | 22 | 7 | 12 | 1012.0 | 1012.3 | - | |
| 04/01:00am | 6.7 | 2.6 | 2.0 | 72 | 2.0 | WNW | 13 | 19 | 7 | 10 | 1011.7 | 1012.0 | - | |
| 04/12:30am | 7.0 | 3.3 | 2.5 | 73 | 1.9 | WNW | 11 | 22 | 6 | 12 | 1011.5 | 1011.8 | - | |
| 04/12:00am | 6.4 | 2.9 | 1.5 | 71 | 2.0 | W | 9 | 17 | 5 | 9 | 1011.1 | 1011.4 | - | |
| Date/Time EST |
Temp °C |
App Temp °C |
Dew Point °C |
Rel Hum % |
Delta-T °C |
Wind | Press QNH hPa |
Press MSL hPa |
Rain since 9am mm |
||||
|---|---|---|---|---|---|---|---|---|---|---|---|---|---|
| Dir | Spd km/h |
Gust km/h |
Spd kts |
Gust kts |
|||||||||
| 03/11:30pm | 6.9 | 2.7 | 1.8 | 70 | 2.1 | WNW | 13 | 26 | 7 | 14 | 1011.0 | 1011.3 | - |
| 03/11:00pm | 6.9 | 2.3 | 1.6 | 69 | 2.2 | W | 15 | 28 | 8 | 15 | 1010.8 | 1011.1 | - |
| 03/10:30pm | 6.8 | 2.3 | 1.9 | 71 | 2.0 | W | 15 | 24 | 8 | 13 | 1010.7 | 1011.0 | - |
| 03/10:00pm | 7.0 | 1.5 | 1.7 | 69 | 2.2 | W | 20 | 37 | 11 | 20 | 1010.5 | 1010.8 | - |
| 03/09:30pm | 7.0 | 1.5 | 1.9 | 70 | 2.1 | W | 20 | 32 | 11 | 17 | 1010.1 | 1010.4 | - |
| 03/09:00pm | 6.9 | 1.5 | 2.2 | 72 | 2.0 | W | 20 | 35 | 11 | 19 | 1010.1 | 1010.4 | 0.6 |
| 03/08:30pm | 6.7 | 2.3 | 2.8 | 76 | 1.6 | W | 15 | 28 | 8 | 15 | 1009.8 | 1010.1 | - |
| 03/08:00pm | 6.6 | 2.6 | 2.9 | 77 | 1.6 | W | 13 | 22 | 7 | 12 | 1009.5 | 1009.9 | - |
| 03/07:30pm | 7.2 | 2.5 | 3.1 | 75 | 1.8 | WSW | 17 | 30 | 9 | 16 | 1009.0 | 1009.3 | - |
| 03/07:00pm | 6.8 | 2.8 | 2.9 | 76 | 1.7 | WSW | 13 | 24 | 7 | 13 | 1008.5 | 1008.8 | - |
| 03/06:30pm | 7.2 | 1.9 | 2.9 | 74 | 1.8 | WSW | 20 | 43 | 11 | 23 | 1007.8 | 1008.1 | - |
| 03/06:00pm | 7.1 | 3.1 | 2.6 | 73 | 1.9 | WNW | 13 | 24 | 7 | 13 | 1006.7 | 1007.0 | - |
| 03/05:30pm | 7.7 | 3.4 | 3.4 | 74 | 1.9 | W | 15 | 26 | 8 | 14 | 1006.4 | 1006.7 | - |
| 03/05:00pm | 7.7 | 2.3 | 4.7 | 81 | 1.3 | W | 22 | 48 | 12 | 26 | 1005.7 | 1006.0 | - |
| 03/04:30pm | 8.7 | 3.8 | 4.1 | 73 | 2.0 | W | 19 | 33 | 10 | 18 | 1004.8 | 1005.1 | - |
| 03/04:03pm | 9.1 | 2.8 | 3.9 | 70 | 2.3 | W | 26 | 48 | 14 | 26 | 1004.4 | 1004.7 | - |
| 03/04:00pm | 9.3 | 3.0 | 3.7 | 68 | 2.5 | W | 26 | 48 | 14 | 26 | 1004.4 | 1004.7 | - |
| 03/03:53pm | 9.7 | 3.0 | 3.4 | 65 | 2.8 | W | 28 | 48 | 15 | 26 | 1004.1 | 1004.4 | - |
| 03/03:30pm | 10.2 | 5.1 | 4.1 | 66 | 2.7 | W | 20 | 32 | 11 | 17 | 1003.5 | 1003.8 | - |
| 03/03:00pm | 9.7 | 3.7 | 3.2 | 64 | 2.9 | W | 24 | 43 | 13 | 23 | 1003.3 | 1003.6 | - |
| 03/02:54pm | 10.1 | 5.0 | 2.9 | 61 | 3.1 | W | 19 | 37 | 10 | 20 | 1002.9 | 1003.1 | - |
| 03/02:31pm | 10.2 | 3.4 | 3.3 | 62 | 3.0 | W | 28 | 52 | 15 | 28 | 1002.7 | 1002.9 | - |
| 03/02:30pm | 10.1 | 3.8 | 3.6 | 64 | 2.9 | W | 26 | 52 | 14 | 28 | 1002.6 | 1002.8 | - |
| 03/02:22pm | 10.2 | 4.8 | 4.6 | 68 | 2.5 | WNW | 22 | 43 | 12 | 23 | 1002.5 | 1002.7 | - |
| 03/02:00pm | 8.9 | 2.0 | 4.5 | 74 | 2.0 | WNW | 30 | 48 | 16 | 26 | 1002.8 | 1003.0 | - |
| 03/01:59pm | 9.0 | 2.5 | 4.8 | 75 | 1.9 | WNW | 28 | 41 | 15 | 22 | 1002.7 | 1002.9 | - |
| 03/01:30pm | 9.3 | 1.8 | 3.5 | 67 | 2.6 | WNW | 32 | 54 | 17 | 29 | 1002.3 | 1002.5 | - |
| 03/01:27pm | 9.7 | 2.9 | 3.2 | 64 | 2.9 | WNW | 28 | 54 | 15 | 29 | 1001.9 | 1002.2 | - |
| 03/01:00pm | - | - | - | - | - | W | 24 | 43 | 13 | 23 | 1002.3 | 1002.5 | 1.0 |
| 03/12:34pm | - | - | - | - | - | W | 15 | 30 | 8 | 16 | 1002.2 | 1002.4 | 1.0 |
| 03/12:30pm | - | - | - | - | - | WSW | 17 | 39 | 9 | 21 | 1002.3 | 1002.5 | 1.0 |
| 03/12:03pm | 7.8 | 1.1 | 3.8 | 76 | 1.7 | W | 28 | 56 | 15 | 30 | 1002.9 | 1003.1 | 0.4 |
| 03/12:00pm | 8.9 | 2.8 | 2.7 | 65 | 2.7 | W | 24 | 46 | 13 | 25 | 1002.3 | 1002.5 | 0.2 |
| 03/11:32am | 10.5 | 4.4 | 2.8 | 59 | 3.4 | W | 24 | 41 | 13 | 22 | 1001.6 | 1001.9 | 0.0 |
| 03/11:30am | 10.8 | 4.9 | 3.8 | 62 | 3.1 | W | 24 | 41 | 13 | 22 | 1001.5 | 1001.8 | 0.0 |
| 03/11:00am | 10.4 | 3.4 | 2.0 | 56 | 3.6 | W | 28 | 50 | 15 | 27 | 1001.3 | 1001.6 | 0.0 |
| 03/10:56am | 10.7 | 3.6 | 1.5 | 53 | 3.9 | W | 28 | 50 | 15 | 27 | 1001.1 | 1001.4 | 0.0 |
| 03/10:30am | 10.2 | 3.6 | 2.1 | 57 | 3.5 | W | 26 | 43 | 14 | 23 | 1001.1 | 1001.4 | 0.0 |
| 03/10:00am | 8.3 | 2.1 | 4.1 | 75 | 1.9 | WSW | 26 | 48 | 14 | 26 | 1000.9 | 1001.2 | 0.0 |
| 03/09:30am | 10.2 | 5.2 | 3.5 | 63 | 3.0 | W | 19 | 32 | 10 | 17 | 1000.3 | 1000.6 | 0.0 |
| 03/09:00am | 9.8 | 4.9 | 4.2 | 68 | 2.5 | W | 19 | 30 | 10 | 16 | 999.9 | 1000.1 | 4.6 |
| 03/08:30am | 9.0 | 4.2 | 5.6 | 79 | 1.6 | W | 20 | 46 | 11 | 25 | 999.5 | 999.7 | 4.6 |
| 03/08:00am | 9.7 | 4.9 | 4.9 | 72 | 2.2 | WNW | 19 | 32 | 10 | 17 | 998.3 | 998.5 | 4.6 |
| 03/07:30am | 9.4 | 4.8 | 5.8 | 78 | 1.7 | W | 19 | 35 | 10 | 19 | 998.3 | 998.5 | 4.6 |
| 03/07:00am | 10.3 | 6.2 | 7.7 | 84 | 1.3 | WNW | 19 | 32 | 10 | 17 | 997.9 | 998.2 | 4.4 |
| 03/06:30am | 9.9 | 6.8 | 8.7 | 92 | 0.6 | WNW | 15 | 26 | 8 | 14 | 997.6 | 997.9 | 4.4 |
| 03/06:00am | 10.2 | 5.0 | 9.0 | 92 | 0.6 | NW | 26 | 50 | 14 | 27 | 997.6 | 997.9 | 2.6 |
| 03/05:30am | 10.1 | 6.3 | 9.0 | 93 | 0.6 | NNW | 19 | 33 | 10 | 18 | 997.3 | 997.6 | 1.2 |
| 03/05:00am | 10.0 | 5.6 | 9.1 | 94 | 0.5 | NNW | 22 | 33 | 12 | 18 | 997.7 | 998.0 | 1.0 |
| 03/04:30am | 9.7 | 5.7 | 8.9 | 95 | 0.4 | NW | 20 | 30 | 11 | 16 | 998.3 | 998.5 | 0.8 |
| 03/04:00am | 9.7 | 5.8 | 8.8 | 94 | 0.5 | NNW | 19 | 26 | 10 | 14 | 998.6 | 998.8 | 0.6 |
| 03/03:30am | 9.8 | 5.3 | 8.6 | 92 | 0.6 | NNW | 22 | 35 | 12 | 19 | 999.2 | 999.4 | 0.4 |
| 03/03:00am | 9.7 | 6.2 | 8.8 | 94 | 0.5 | NW | 17 | 30 | 9 | 16 | 999.7 | 999.9 | 0.4 |
| 03/02:30am | 9.6 | 6.1 | 8.8 | 95 | 0.4 | NW | 17 | 24 | 9 | 13 | 1000.5 | 1000.8 | 0.4 |
| 03/02:00am | 9.4 | 6.3 | 8.8 | 96 | 0.3 | NW | 15 | 24 | 8 | 13 | 1001.0 | 1001.3 | 0.2 |
| 03/01:30am | 9.6 | 6.1 | 8.7 | 94 | 0.4 | NW | 17 | 24 | 9 | 13 | 1001.5 | 1001.8 | 0.0 |
| 03/01:00am | 9.9 | 5.3 | 8.2 | 89 | 0.8 | NW | 22 | 35 | 12 | 19 | 1001.8 | 1002.1 | 0.0 |
| 03/12:30am | 9.5 | 5.3 | 8.4 | 93 | 0.5 | NW | 20 | 39 | 11 | 21 | 1002.1 | 1002.3 | 0.0 |
Other formats
Comma delimited format used in spreadsheet applications
http://www.bom.gov.au/fwo/IDT60801/IDT60801.94955.axf
JavaScript Object Notation format (JSON) in row-major order
http://www.bom.gov.au/fwo/IDT60801/IDT60801.94955.json
Data quality
Most of these data are generated automatically and are frequently updated. Quality checks on data are not normally performed. It is possible for incorrect values to appear. Refer to information at About Latest Weather Observations and please check the disclaimer before using these data.
